sensor_id;sensor_type;location;lat;lon;timestamp;temperature;humidity
16315;DHT22;8266;52.150;4.768;2022-10-01T00:00:22;14.60;99.90
16315;DHT22;8266;52.150;4.768;2022-10-01T00:02:51;14.60;99.90
16315;DHT22;8266;52.150;4.768;2022-10-01T00:05:33;14.60;99.90
16315;DHT22;8266;52.150;4.768;2022-10-01T00:08:20;14.60;99.90
16315;DHT22;8266;52.150;4.768;2022-10-01T00:11:12;14.60;99.90
16315;DHT22;8266;52.150;4.768;2022-10-01T00:13:51;14.60;99.90
16315;DHT22;8266;52.150;4.768;2022-10-01T00:16:32;14.50;99.90
16315;DHT22;8266;52.150;4.768;2022-10-01T00:18:59;14.50;99.90
16315;DHT22;8266;52.150;4.768;2022-10-01T00:21:28;14.50;99.90
16315;DHT22;8266;52.150;4.768;2022-10-01T00:23:59;14.50;99.90
16315;DHT22;8266;52.150;4.768;2022-10-01T00:26:41;14.50;99.90
16315;DHT22;8266;52.150;4.768;2022-10-01T00:29:22;14.50;99.90
16315;DHT22;8266;52.150;4.768;2022-10-01T00:31:54;14.50;99.90
16315;DHT22;8266;52.150;4.768;2022-10-01T00:34:35;14.40;99.90
16315;DHT22;8266;52.150;4.768;2022-10-01T00:37:02;14.50;99.90
16315;DHT22;8266;52.150;4.768;2022-10-01T00:39:30;14.40;99.90
16315;DHT22;8266;52.150;4.768;2022-10-01T00:41:57;14.40;99.90
16315;DHT22;8266;52.150;4.768;2022-10-01T00:44:29;14.40;99.90
16315;DHT22;8266;52.150;4.768;2022-10-01T00:47:05;14.40;99.90
16315;DHT22;8266;52.150;4.768;2022-10-01T00:49:38;14.50;99.90
16315;DHT22;8266;52.150;4.768;2022-10-01T00:52:12;14.40;99.90
16315;DHT22;8266;52.150;4.768;2022-10-01T00:54:45;14.40;99.90
16315;DHT22;8266;52.150;4.768;2022-10-01T00:57:16;14.40;99.90
16315;DHT22;8266;52.150;4.768;2022-10-01T01:00:07;14.40;99.90
16315;DHT22;8266;52.150;4.768;2022-10-01T01:02:48;14.40;99.90
16315;DHT22;8266;52.150;4.768;2022-10-01T01:05:17;14.40;99.90
16315;DHT22;8266;52.150;4.768;2022-10-01T01:07:47;14.30;99.90
16315;DHT22;8266;52.150;4.768;2022-10-01T01:10:17;14.40;99.90
16315;DHT22;8266;52.150;4.768;2022-10-01T01:13:02;14.40;99.90
16315;DHT22;8266;52.150;4.768;2022-10-01T01:15:35;14.30;99.90
16315;DHT22;8266;52.150;4.768;2022-10-01T01:18:09;14.30;99.90
16315;DHT22;8266;52.150;4.768;2022-10-01T01:20:55;14.30;99.90
16315;DHT22;8266;52.150;4.768;2022-10-01T01:23:40;14.30;99.90
16315;DHT22;8266;52.150;4.768;2022-10-01T01:26:19;14.30;99.90
16315;DHT22;8266;52.150;4.768;2022-10-01T01:28:53;14.30;99.90
16315;DHT22;8266;52.150;4.768;2022-10-01T01:31:24;14.30;99.90
16315;DHT22;8266;52.150;4.768;2022-10-01T01:33:55;14.30;99.90
16315;DHT22;8266;52.150;4.768;2022-10-01T01:36:33;14.40;99.90
16315;DHT22;8266;52.150;4.768;2022-10-01T01:39:03;14.30;99.90
16315;DHT22;8266;52.150;4.768;2022-10-01T01:41:35;14.40;99.90
16315;DHT22;8266;52.150;4.768;2022-10-01T01:44:11;14.40;99.90
16315;DHT22;8266;52.150;4.768;2022-10-01T01:46:44;14.40;99.90
16315;DHT22;8266;52.150;4.768;2022-10-01T01:49:15;14.40;99.90
16315;DHT22;8266;52.150;4.768;2022-10-01T01:51:51;14.40;99.90
16315;DHT22;8266;52.150;4.768;2022-10-01T01:54:29;14.50;99.90
16315;DHT22;8266;52.150;4.768;2022-10-01T01:56:57;14.30;99.90
16315;DHT22;8266;52.150;4.768;2022-10-01T01:59:32;14.40;99.90
16315;DHT22;8266;52.150;4.768;2022-10-01T02:02:02;14.40;99.90
16315;DHT22;8266;52.150;4.768;2022-10-01T02:04:35;14.40;99.90
16315;DHT22;8266;52.150;4.768;2022-10-01T02:07:25;14.40;99.90
16315;DHT22;8266;52.150;4.768;2022-10-01T02:10:03;14.40;99.90
16315;DHT22;8266;52.150;4.768;2022-10-01T02:12:44;14.40;99.90
16315;DHT22;8266;52.150;4.768;2022-10-01T02:15:24;14.40;99.90
16315;DHT22;8266;52.150;4.768;2022-10-01T02:17:58;14.40;99.90
16315;DHT22;8266;52.150;4.768;2022-10-01T02:20:32;14.50;99.90
16315;DHT22;8266;52.150;4.768;2022-10-01T02:23:04;14.50;99.90
16315;DHT22;8266;52.150;4.768;2022-10-01T02:25:39;14.50;99.90
16315;DHT22;8266;52.150;4.768;2022-10-01T02:28:10;14.50;99.90
16315;DHT22;8266;52.150;4.768;2022-10-01T02:30:53;14.50;99.90
16315;DHT22;8266;52.150;4.768;2022-10-01T02:33:24;14.50;99.90
16315;DHT22;8266;52.150;4.768;2022-10-01T02:36:07;14.50;99.90
16315;DHT22;8266;52.150;4.768;2022-10-01T02:38:40;14.50;99.90
16315;DHT22;8266;52.150;4.768;2022-10-01T02:41:14;14.50;99.90
16315;DHT22;8266;52.150;4.768;2022-10-01T02:43:48;14.50;99.90
16315;DHT22;8266;52.150;4.768;2022-10-01T02:46:26;14.60;99.90
16315;DHT22;8266;52.150;4.768;2022-10-01T02:48:56;14.60;99.90
16315;DHT22;8266;52.150;4.768;2022-10-01T02:51:32;14.60;99.90
16315;DHT22;8266;52.150;4.768;2022-10-01T02:54:07;14.60;99.90
16315;DHT22;8266;52.150;4.768;2022-10-01T02:56:37;14.60;99.90
16315;DHT22;8266;52.150;4.768;2022-10-01T02:59:23;14.70;99.90
16315;DHT22;8266;52.150;4.768;2022-10-01T03:02:00;14.60;99.90
16315;DHT22;8266;52.150;4.768;2022-10-01T03:04:27;14.70;99.90
16315;DHT22;8266;52.150;4.768;2022-10-01T03:06:55;14.70;99.90
16315;DHT22;8266;52.150;4.768;2022-10-01T03:09:28;14.60;99.90
16315;DHT22;8266;52.150;4.768;2022-10-01T03:11:56;14.80;99.90
16315;DHT22;8266;52.150;4.768;2022-10-01T03:14:35;14.70;99.90
16315;DHT22;8266;52.150;4.768;2022-10-01T03:17:05;14.80;99.90
16315;DHT22;8266;52.150;4.768;2022-10-01T03:19:34;14.80;99.90
16315;DHT22;8266;52.150;4.768;2022-10-01T03:22:03;14.90;99.90
16315;DHT22;8266;52.150;4.768;2022-10-01T03:24:31;14.90;99.90
16315;DHT22;8266;52.150;4.768;2022-10-01T03:27:01;14.90;99.90
16315;DHT22;8266;52.150;4.768;2022-10-01T03:29:28;15.00;99.90
16315;DHT22;8266;52.150;4.768;2022-10-01T03:31:59;15.00;99.90
16315;DHT22;8266;52.150;4.768;2022-10-01T03:41:21;15.10;99.90
16315;DHT22;8266;52.150;4.768;2022-10-01T03:44:27;15.10;99.90
16315;DHT22;8266;52.150;4.768;2022-10-01T03:51:08;15.20;99.90
16315;DHT22;8266;52.150;4.768;2022-10-01T03:54:03;15.20;99.90
16315;DHT22;8266;52.150;4.768;2022-10-01T03:56:45;15.30;99.90
16315;DHT22;8266;52.150;4.768;2022-10-01T03:59:28;15.30;99.90
16315;DHT22;8266;52.150;4.768;2022-10-01T04:01:57;15.30;99.90
16315;DHT22;8266;52.150;4.768;2022-10-01T04:04:29;15.30;99.90
16315;DHT22;8266;52.150;4.768;2022-10-01T04:07:08;15.40;99.90
16315;DHT22;8266;52.150;4.768;2022-10-01T04:09:58;15.40;99.90
16315;DHT22;8266;52.150;4.768;2022-10-01T04:12:25;15.40;99.90
16315;DHT22;8266;52.150;4.768;2022-10-01T04:14:55;15.40;99.90
16315;DHT22;8266;52.150;4.768;2022-10-01T04:17:23;15.50;99.90
16315;DHT22;8266;52.150;4.768;2022-10-01T04:19:50;15.50;99.90
16315;DHT22;8266;52.150;4.768;2022-10-01T04:22:20;15.50;99.90
16315;DHT22;8266;52.150;4.768;2022-10-01T04:24:49;15.50;99.90
16315;DHT22;8266;52.150;4.768;2022-10-01T04:27:55;15.60;99.90
16315;DHT22;8266;52.150;4.768;2022-10-01T04:30:26;15.60;99.90
16315;DHT22;8266;52.150;4.768;2022-10-01T04:32:55;15.60;99.90
16315;DHT22;8266;52.150;4.768;2022-10-01T04:35:30;15.60;99.90
16315;DHT22;8266;52.150;4.768;2022-10-01T04:38:04;15.70;99.90
16315;DHT22;8266;52.150;4.768;2022-10-01T04:40:35;15.70;99.90
16315;DHT22;8266;52.150;4.768;2022-10-01T04:43:14;15.70;99.90
16315;DHT22;8266;52.150;4.768;2022-10-01T04:45:41;15.80;99.90
16315;DHT22;8266;52.150;4.768;2022-10-01T04:48:08;15.80;99.90
16315;DHT22;8266;52.150;4.768;2022-10-01T04:50:35;15.80;99.90
16315;DHT22;8266;52.150;4.768;2022-10-01T04:53:02;15.90;99.90
16315;DHT22;8266;52.150;4.768;2022-10-01T04:55:35;15.90;99.90
16315;DHT22;8266;52.150;4.768;2022-10-01T04:58:02;15.90;99.90
16315;DHT22;8266;52.150;4.768;2022-10-01T05:00:29;15.80;99.90
16315;DHT22;8266;52.150;4.768;2022-10-01T05:02:59;15.90;99.90
16315;DHT22;8266;52.150;4.768;2022-10-01T05:05:27;15.90;99.90
16315;DHT22;8266;52.150;4.768;2022-10-01T05:07:57;15.90;99.90
16315;DHT22;8266;52.150;4.768;2022-10-01T05:10:24;15.90;99.90
16315;DHT22;8266;52.150;4.768;2022-10-01T05:12:53;15.90;99.90
16315;DHT22;8266;52.150;4.768;2022-10-01T05:15:24;15.90;99.90
16315;DHT22;8266;52.150;4.768;2022-10-01T05:17:53;15.90;99.90
16315;DHT22;8266;52.150;4.768;2022-10-01T05:20:25;15.90;99.90
16315;DHT22;8266;52.150;4.768;2022-10-01T05:22:56;15.80;99.90
16315;DHT22;8266;52.150;4.768;2022-10-01T05:25:28;15.80;99.90
16315;DHT22;8266;52.150;4.768;2022-10-01T05:28:00;15.80;99.90
16315;DHT22;8266;52.150;4.768;2022-10-01T05:30:31;15.80;99.90
16315;DHT22;8266;52.150;4.768;2022-10-01T05:33:00;15.80;99.90
16315;DHT22;8266;52.150;4.768;2022-10-01T05:35:28;15.70;99.90
16315;DHT22;8266;52.150;4.768;2022-10-01T05:37:56;15.70;99.90
16315;DHT22;8266;52.150;4.768;2022-10-01T05:40:24;15.60;99.90
16315;DHT22;8266;52.150;4.768;2022-10-01T05:42:54;15.70;99.90
16315;DHT22;8266;52.150;4.768;2022-10-01T05:45:29;15.70;99.90
16315;DHT22;8266;52.150;4.768;2022-10-01T05:47:58;15.70;99.90
16315;DHT22;8266;52.150;4.768;2022-10-01T05:50:26;15.70;99.90
16315;DHT22;8266;52.150;4.768;2022-10-01T05:52:53;15.70;99.90
16315;DHT22;8266;52.150;4.768;2022-10-01T05:55:21;15.60;99.90
16315;DHT22;8266;52.150;4.768;2022-10-01T05:57:59;15.60;99.90
16315;DHT22;8266;52.150;4.768;2022-10-01T06:00:29;15.60;99.90
16315;DHT22;8266;52.150;4.768;2022-10-01T06:02:57;15.60;99.90
16315;DHT22;8266;52.150;4.768;2022-10-01T06:05:25;15.60;99.90
16315;DHT22;8266;52.150;4.768;2022-10-01T06:07:52;15.60;99.90
16315;DHT22;8266;52.150;4.768;2022-10-01T06:10:20;15.60;99.90
16315;DHT22;8266;52.150;4.768;2022-10-01T06:12:47;15.60;99.90
16315;DHT22;8266;52.150;4.768;2022-10-01T06:15:15;15.60;99.90
16315;DHT22;8266;52.150;4.768;2022-10-01T06:17:43;15.60;99.90
16315;DHT22;8266;52.150;4.768;2022-10-01T06:20:12;15.60;99.90
16315;DHT22;8266;52.150;4.768;2022-10-01T06:22:40;15.60;99.90
16315;DHT22;8266;52.150;4.768;2022-10-01T06:25:09;15.60;99.90
16315;DHT22;8266;52.150;4.768;2022-10-01T06:27:36;15.60;99.90
16315;DHT22;8266;52.150;4.768;2022-10-01T06:30:05;15.60;99.90
16315;DHT22;8266;52.150;4.768;2022-10-01T06:32:44;15.70;99.90
16315;DHT22;8266;52.150;4.768;2022-10-01T06:35:13;15.80;99.90
16315;DHT22;8266;52.150;4.768;2022-10-01T06:37:40;15.80;99.90
16315;DHT22;8266;52.150;4.768;2022-10-01T06:40:08;15.90;99.90
16315;DHT22;8266;52.150;4.768;2022-10-01T06:42:38;15.90;99.90
16315;DHT22;8266;52.150;4.768;2022-10-01T06:45:08;16.00;99.90
16315;DHT22;8266;52.150;4.768;2022-10-01T06:47:35;16.00;99.90
16315;DHT22;8266;52.150;4.768;2022-10-01T06:50:02;16.00;99.90
16315;DHT22;8266;52.150;4.768;2022-10-01T06:52:31;16.10;99.90
16315;DHT22;8266;52.150;4.768;2022-10-01T06:55:16;16.10;99.90
16315;DHT22;8266;52.150;4.768;2022-10-01T06:57:43;16.10;99.90
16315;DHT22;8266;52.150;4.768;2022-10-01T07:00:11;16.10;99.90
16315;DHT22;8266;52.150;4.768;2022-10-01T07:02:38;16.10;99.90
16315;DHT22;8266;52.150;4.768;2022-10-01T07:05:07;16.20;99.90
16315;DHT22;8266;52.150;4.768;2022-10-01T07:07:36;16.20;99.90
16315;DHT22;8266;52.150;4.768;2022-10-01T07:13:22;16.20;99.90
16315;DHT22;8266;52.150;4.768;2022-10-01T07:15:49;16.20;99.90
16315;DHT22;8266;52.150;4.768;2022-10-01T07:18:16;16.20;99.90
16315;DHT22;8266;52.150;4.768;2022-10-01T07:20:43;16.20;99.90
16315;DHT22;8266;52.150;4.768;2022-10-01T07:23:13;16.30;99.90
16315;DHT22;8266;52.150;4.768;2022-10-01T07:25:41;16.30;99.90
16315;DHT22;8266;52.150;4.768;2022-10-01T07:28:11;16.40;99.90
16315;DHT22;8266;52.150;4.768;2022-10-01T07:30:41;16.40;99.90
16315;DHT22;8266;52.150;4.768;2022-10-01T07:33:08;16.50;99.90
16315;DHT22;8266;52.150;4.768;2022-10-01T07:35:39;16.60;99.90
16315;DHT22;8266;52.150;4.768;2022-10-01T07:38:09;16.60;99.90
16315;DHT22;8266;52.150;4.768;2022-10-01T07:40:37;16.60;99.90
16315;DHT22;8266;52.150;4.768;2022-10-01T07:43:04;16.60;99.90
16315;DHT22;8266;52.150;4.768;2022-10-01T07:45:31;16.60;99.90
16315;DHT22;8266;52.150;4.768;2022-10-01T07:48:02;16.70;99.90
16315;DHT22;8266;52.150;4.768;2022-10-01T07:50:30;16.70;99.90
16315;DHT22;8266;52.150;4.768;2022-10-01T07:53:00;16.70;99.90
16315;DHT22;8266;52.150;4.768;2022-10-01T07:55:28;16.70;99.90
16315;DHT22;8266;52.150;4.768;2022-10-01T07:58:00;16.70;99.90
16315;DHT22;8266;52.150;4.768;2022-10-01T08:00:31;16.70;99.90
16315;DHT22;8266;52.150;4.768;2022-10-01T08:03:00;16.70;99.90
16315;DHT22;8266;52.150;4.768;2022-10-01T08:05:32;16.60;99.90
16315;DHT22;8266;52.150;4.768;2022-10-01T08:08:05;16.80;99.90
16315;DHT22;8266;52.150;4.768;2022-10-01T08:10:33;17.20;99.90
16315;DHT22;8266;52.150;4.768;2022-10-01T08:13:04;17.30;99.90
16315;DHT22;8266;52.150;4.768;2022-10-01T08:15:32;17.70;99.90
16315;DHT22;8266;52.150;4.768;2022-10-01T08:18:00;18.00;99.90
16315;DHT22;8266;52.150;4.768;2022-10-01T08:20:28;18.40;99.90
16315;DHT22;8266;52.150;4.768;2022-10-01T08:23:00;18.80;99.90
16315;DHT22;8266;52.150;4.768;2022-10-01T08:25:37;19.20;99.90
16315;DHT22;8266;52.150;4.768;2022-10-01T08:28:10;19.50;99.90
16315;DHT22;8266;52.150;4.768;2022-10-01T08:30:41;19.90;99.90
16315;DHT22;8266;52.150;4.768;2022-10-01T08:33:10;20.20;99.90
16315;DHT22;8266;52.150;4.768;2022-10-01T08:35:39;20.60;99.90
16315;DHT22;8266;52.150;4.768;2022-10-01T08:38:09;20.80;99.90
16315;DHT22;8266;52.150;4.768;2022-10-01T08:40:41;21.00;99.90
16315;DHT22;8266;52.150;4.768;2022-10-01T08:43:28;21.00;99.90
16315;DHT22;8266;52.150;4.768;2022-10-01T08:46:00;21.00;99.90
16315;DHT22;8266;52.150;4.768;2022-10-01T08:48:41;21.00;99.90
16315;DHT22;8266;52.150;4.768;2022-10-01T08:51:12;20.90;99.90
16315;DHT22;8266;52.150;4.768;2022-10-01T08:53:44;20.70;99.90
16315;DHT22;8266;52.150;4.768;2022-10-01T08:56:32;20.50;99.90
16315;DHT22;8266;52.150;4.768;2022-10-01T08:59:13;20.30;99.90
16315;DHT22;8266;52.150;4.768;2022-10-01T09:01:44;20.20;99.90
16315;DHT22;8266;52.150;4.768;2022-10-01T09:04:13;20.30;99.90
16315;DHT22;8266;52.150;4.768;2022-10-01T09:06:40;20.40;99.90
16315;DHT22;8266;52.150;4.768;2022-10-01T09:09:27;20.70;99.90
16315;DHT22;8266;52.150;4.768;2022-10-01T09:12:08;21.00;99.90
16315;DHT22;8266;52.150;4.768;2022-10-01T09:14:58;21.30;99.90
16315;DHT22;8266;52.150;4.768;2022-10-01T09:17:41;21.60;99.90
16315;DHT22;8266;52.150;4.768;2022-10-01T09:20:16;21.90;99.90
16315;DHT22;8266;52.150;4.768;2022-10-01T09:22:52;22.00;99.90
16315;DHT22;8266;52.150;4.768;2022-10-01T09:25:22;21.90;99.90
16315;DHT22;8266;52.150;4.768;2022-10-01T09:27:51;21.80;99.90
16315;DHT22;8266;52.150;4.768;2022-10-01T09:30:21;21.80;99.90
16315;DHT22;8266;52.150;4.768;2022-10-01T09:32:52;21.80;99.90
16315;DHT22;8266;52.150;4.768;2022-10-01T09:35:31;21.80;99.90
16315;DHT22;8266;52.150;4.768;2022-10-01T09:38:04;21.80;99.90
16315;DHT22;8266;52.150;4.768;2022-10-01T09:40:34;21.90;99.90
16315;DHT22;8266;52.150;4.768;2022-10-01T09:43:02;22.00;99.90
16315;DHT22;8266;52.150;4.768;2022-10-01T09:45:32;22.00;99.90
16315;DHT22;8266;52.150;4.768;2022-10-01T09:48:03;21.90;99.90
16315;DHT22;8266;52.150;4.768;2022-10-01T09:50:41;21.80;99.90
16315;DHT22;8266;52.150;4.768;2022-10-01T09:53:14;21.60;99.90
16315;DHT22;8266;52.150;4.768;2022-10-01T09:55:43;21.60;99.90
16315;DHT22;8266;52.150;4.768;2022-10-01T09:58:13;21.50;99.90
16315;DHT22;8266;52.150;4.768;2022-10-01T10:00:44;21.40;99.90
16315;DHT22;8266;52.150;4.768;2022-10-01T10:03:21;21.30;99.90
16315;DHT22;8266;52.150;4.768;2022-10-01T10:05:48;21.30;99.90
16315;DHT22;8266;52.150;4.768;2022-10-01T10:08:22;21.30;99.90
16315;DHT22;8266;52.150;4.768;2022-10-01T10:10:55;21.50;99.90
16315;DHT22;8266;52.150;4.768;2022-10-01T10:13:28;21.60;99.90
16315;DHT22;8266;52.150;4.768;2022-10-01T10:15:59;21.80;99.90
16315;DHT22;8266;52.150;4.768;2022-10-01T10:18:32;21.90;99.90
16315;DHT22;8266;52.150;4.768;2022-10-01T10:21:02;21.90;99.90
16315;DHT22;8266;52.150;4.768;2022-10-01T10:23:32;22.00;99.90
16315;DHT22;8266;52.150;4.768;2022-10-01T10:26:01;22.00;99.90
16315;DHT22;8266;52.150;4.768;2022-10-01T10:28:38;22.00;99.90
16315;DHT22;8266;52.150;4.768;2022-10-01T10:31:12;22.00;99.90
16315;DHT22;8266;52.150;4.768;2022-10-01T10:33:50;21.90;99.90
16315;DHT22;8266;52.150;4.768;2022-10-01T10:36:18;21.80;99.90
16315;DHT22;8266;52.150;4.768;2022-10-01T10:38:47;21.80;99.90
16315;DHT22;8266;52.150;4.768;2022-10-01T10:41:17;21.80;99.90
16315;DHT22;8266;52.150;4.768;2022-10-01T10:43:52;21.80;99.90
16315;DHT22;8266;52.150;4.768;2022-10-01T10:46:25;21.80;99.90
16315;DHT22;8266;52.150;4.768;2022-10-01T10:49:00;21.70;99.90
16315;DHT22;8266;52.150;4.768;2022-10-01T10:51:42;21.60;99.90
16315;DHT22;8266;52.150;4.768;2022-10-01T10:54:21;21.40;99.90
16315;DHT22;8266;52.150;4.768;2022-10-01T10:56:53;21.30;99.90
16315;DHT22;8266;52.150;4.768;2022-10-01T10:59:23;21.20;99.90
16315;DHT22;8266;52.150;4.768;2022-10-01T11:01:52;21.10;99.90
16315;DHT22;8266;52.150;4.768;2022-10-01T11:04:26;21.10;99.90
16315;DHT22;8266;52.150;4.768;2022-10-01T11:06:55;21.00;99.90
16315;DHT22;8266;52.150;4.768;2022-10-01T11:09:26;21.00;99.90
16315;DHT22;8266;52.150;4.768;2022-10-01T11:12:02;21.00;99.90
16315;DHT22;8266;52.150;4.768;2022-10-01T11:14:53;21.00;99.90
16315;DHT22;8266;52.150;4.768;2022-10-01T11:17:54;20.90;99.90
16315;DHT22;8266;52.150;4.768;2022-10-01T11:20:34;20.90;99.90
16315;DHT22;8266;52.150;4.768;2022-10-01T11:23:25;21.00;99.90
16315;DHT22;8266;52.150;4.768;2022-10-01T11:26:06;21.00;99.90
16315;DHT22;8266;52.150;4.768;2022-10-01T11:28:41;21.10;99.90
16315;DHT22;8266;52.150;4.768;2022-10-01T11:31:14;21.20;99.90
16315;DHT22;8266;52.150;4.768;2022-10-01T11:33:56;21.30;99.90
16315;DHT22;8266;52.150;4.768;2022-10-01T11:36:28;21.30;99.90
16315;DHT22;8266;52.150;4.768;2022-10-01T11:38:59;21.40;99.90
16315;DHT22;8266;52.150;4.768;2022-10-01T11:41:30;21.40;99.90
16315;DHT22;8266;52.150;4.768;2022-10-01T11:44:04;21.30;99.90
16315;DHT22;8266;52.150;4.768;2022-10-01T11:46:49;21.30;99.90
16315;DHT22;8266;52.150;4.768;2022-10-01T11:52:20;21.10;99.90
16315;DHT22;8266;52.150;4.768;2022-10-01T11:54:59;21.00;99.90
16315;DHT22;8266;52.150;4.768;2022-10-01T11:57:51;20.90;99.90
16315;DHT22;8266;52.150;4.768;2022-10-01T12:00:38;20.90;99.90
16315;DHT22;8266;52.150;4.768;2022-10-01T12:03:14;20.90;99.90
16315;DHT22;8266;52.150;4.768;2022-10-01T12:05:44;21.00;99.90
16315;DHT22;8266;52.150;4.768;2022-10-01T12:08:16;21.00;99.90
16315;DHT22;8266;52.150;4.768;2022-10-01T12:10:50;21.00;99.90
16315;DHT22;8266;52.150;4.768;2022-10-01T12:13:26;21.10;99.90
16315;DHT22;8266;52.150;4.768;2022-10-01T12:15:55;21.20;99.90
16315;DHT22;8266;52.150;4.768;2022-10-01T12:18:28;21.10;99.90
16315;DHT22;8266;52.150;4.768;2022-10-01T12:21:00;21.10;99.90
16315;DHT22;8266;52.150;4.768;2022-10-01T12:23:31;21.20;99.90
16315;DHT22;8266;52.150;4.768;2022-10-01T12:26:08;21.20;99.90
16315;DHT22;8266;52.150;4.768;2022-10-01T12:28:42;21.20;99.90
16315;DHT22;8266;52.150;4.768;2022-10-01T12:31:18;21.20;99.90
16315;DHT22;8266;52.150;4.768;2022-10-01T12:34:07;21.30;99.90
16315;DHT22;8266;52.150;4.768;2022-10-01T12:36:44;21.30;99.90
16315;DHT22;8266;52.150;4.768;2022-10-01T12:39:28;21.30;99.90
16315;DHT22;8266;52.150;4.768;2022-10-01T12:42:04;21.30;99.90
16315;DHT22;8266;52.150;4.768;2022-10-01T12:44:49;21.30;99.90
16315;DHT22;8266;52.150;4.768;2022-10-01T12:47:31;21.30;99.90
16315;DHT22;8266;52.150;4.768;2022-10-01T12:50:11;21.30;99.90
16315;DHT22;8266;52.150;4.768;2022-10-01T12:52:56;21.30;99.90
16315;DHT22;8266;52.150;4.768;2022-10-01T12:55:39;21.30;99.90
16315;DHT22;8266;52.150;4.768;2022-10-01T12:58:16;21.40;99.90
16315;DHT22;8266;52.150;4.768;2022-10-01T13:00:56;21.50;99.90
16315;DHT22;8266;52.150;4.768;2022-10-01T13:03:44;21.50;99.90
16315;DHT22;8266;52.150;4.768;2022-10-01T13:06:31;21.50;99.90
16315;DHT22;8266;52.150;4.768;2022-10-01T13:09:08;21.70;99.90
16315;DHT22;8266;52.150;4.768;2022-10-01T13:11:50;21.60;99.90
16315;DHT22;8266;52.150;4.768;2022-10-01T13:14:19;21.60;99.90
16315;DHT22;8266;52.150;4.768;2022-10-01T13:16:52;21.60;99.90
16315;DHT22;8266;52.150;4.768;2022-10-01T13:19:29;21.60;99.90
16315;DHT22;8266;52.150;4.768;2022-10-01T13:22:02;21.70;99.90
16315;DHT22;8266;52.150;4.768;2022-10-01T13:24:36;21.70;99.90
16315;DHT22;8266;52.150;4.768;2022-10-01T13:27:10;21.70;99.90
16315;DHT22;8266;52.150;4.768;2022-10-01T13:29:51;21.80;99.90
16315;DHT22;8266;52.150;4.768;2022-10-01T13:32:30;21.80;99.90
16315;DHT22;8266;52.150;4.768;2022-10-01T13:35:00;21.80;99.90
16315;DHT22;8266;52.150;4.768;2022-10-01T13:37:34;21.80;99.90
16315;DHT22;8266;52.150;4.768;2022-10-01T13:40:17;21.80;99.90
16315;DHT22;8266;52.150;4.768;2022-10-01T13:42:47;21.80;99.90
16315;DHT22;8266;52.150;4.768;2022-10-01T13:45:25;21.80;99.90
16315;DHT22;8266;52.150;4.768;2022-10-01T13:48:06;21.80;99.90
16315;DHT22;8266;52.150;4.768;2022-10-01T13:50:39;21.70;99.90
16315;DHT22;8266;52.150;4.768;2022-10-01T13:53:11;21.70;99.90
16315;DHT22;8266;52.150;4.768;2022-10-01T13:55:42;21.60;99.90
16315;DHT22;8266;52.150;4.768;2022-10-01T13:58:29;21.50;99.90
16315;DHT22;8266;52.150;4.768;2022-10-01T14:00:59;21.40;99.90
16315;DHT22;8266;52.150;4.768;2022-10-01T14:03:37;21.30;99.90
16315;DHT22;8266;52.150;4.768;2022-10-01T14:06:13;21.30;99.90
16315;DHT22;8266;52.150;4.768;2022-10-01T14:08:43;21.30;99.90
16315;DHT22;8266;52.150;4.768;2022-10-01T14:11:15;21.20;99.90
16315;DHT22;8266;52.150;4.768;2022-10-01T14:14:08;21.20;99.90
16315;DHT22;8266;52.150;4.768;2022-10-01T14:16:54;21.10;99.90
16315;DHT22;8266;52.150;4.768;2022-10-01T14:19:24;21.10;99.90
16315;DHT22;8266;52.150;4.768;2022-10-01T14:22:06;21.00;99.90
16315;DHT22;8266;52.150;4.768;2022-10-01T14:24:53;20.90;99.90
16315;DHT22;8266;52.150;4.768;2022-10-01T14:27:30;20.80;99.90
16315;DHT22;8266;52.150;4.768;2022-10-01T14:30:02;20.70;99.90
16315;DHT22;8266;52.150;4.768;2022-10-01T14:32:39;20.70;99.90
16315;DHT22;8266;52.150;4.768;2022-10-01T14:35:28;20.70;99.90
16315;DHT22;8266;52.150;4.768;2022-10-01T14:37:58;20.70;99.90
16315;DHT22;8266;52.150;4.768;2022-10-01T14:40:33;20.70;99.90
16315;DHT22;8266;52.150;4.768;2022-10-01T14:43:14;20.60;99.90
16315;DHT22;8266;52.150;4.768;2022-10-01T14:45:54;20.60;99.90
16315;DHT22;8266;52.150;4.768;2022-10-01T14:48:22;20.60;99.90
16315;DHT22;8266;52.150;4.768;2022-10-01T14:50:54;20.60;99.90
16315;DHT22;8266;52.150;4.768;2022-10-01T14:53:23;20.70;99.90
16315;DHT22;8266;52.150;4.768;2022-10-01T14:55:52;20.70;99.90
16315;DHT22;8266;52.150;4.768;2022-10-01T14:58:23;20.70;99.90
16315;DHT22;8266;52.150;4.768;2022-10-01T15:00:53;20.60;99.90
16315;DHT22;8266;52.150;4.768;2022-10-01T15:03:21;20.60;99.90
16315;DHT22;8266;52.150;4.768;2022-10-01T15:05:49;20.60;99.90
16315;DHT22;8266;52.150;4.768;2022-10-01T15:08:19;20.70;99.90
16315;DHT22;8266;52.150;4.768;2022-10-01T15:10:50;20.70;99.90
16315;DHT22;8266;52.150;4.768;2022-10-01T15:13:21;20.80;99.90
16315;DHT22;8266;52.150;4.768;2022-10-01T15:15:51;20.90;99.90
16315;DHT22;8266;52.150;4.768;2022-10-01T15:18:19;21.00;99.90
16315;DHT22;8266;52.150;4.768;2022-10-01T15:20:55;21.00;99.90
16315;DHT22;8266;52.150;4.768;2022-10-01T15:23:24;21.10;99.90
16315;DHT22;8266;52.150;4.768;2022-10-01T15:25:52;21.10;99.90
16315;DHT22;8266;52.150;4.768;2022-10-01T15:28:27;21.20;99.90
16315;DHT22;8266;52.150;4.768;2022-10-01T15:30:58;21.20;99.90
16315;DHT22;8266;52.150;4.768;2022-10-01T15:33:27;21.30;99.90
16315;DHT22;8266;52.150;4.768;2022-10-01T15:35:56;21.30;99.90
16315;DHT22;8266;52.150;4.768;2022-10-01T15:38:25;21.30;99.90
16315;DHT22;8266;52.150;4.768;2022-10-01T15:40:53;21.30;99.90
16315;DHT22;8266;52.150;4.768;2022-10-01T15:43:33;21.30;99.90
16315;DHT22;8266;52.150;4.768;2022-10-01T15:46:24;21.20;99.90
16315;DHT22;8266;52.150;4.768;2022-10-01T15:49:13;21.20;99.90
16315;DHT22;8266;52.150;4.768;2022-10-01T15:51:54;21.20;99.90
16315;DHT22;8266;52.150;4.768;2022-10-01T15:54:42;21.10;99.90
16315;DHT22;8266;52.150;4.768;2022-10-01T15:57:13;21.00;99.90
16315;DHT22;8266;52.150;4.768;2022-10-01T15:59:41;21.00;99.90
16315;DHT22;8266;52.150;4.768;2022-10-01T16:02:17;20.90;99.90
16315;DHT22;8266;52.150;4.768;2022-10-01T16:04:46;20.80;99.90
16315;DHT22;8266;52.150;4.768;2022-10-01T16:07:18;20.80;99.90
16315;DHT22;8266;52.150;4.768;2022-10-01T16:09:50;20.70;99.90
16315;DHT22;8266;52.150;4.768;2022-10-01T16:12:20;20.70;99.90
16315;DHT22;8266;52.150;4.768;2022-10-01T16:14:57;20.60;99.90
16315;DHT22;8266;52.150;4.768;2022-10-01T16:17:29;20.50;99.90
16315;DHT22;8266;52.150;4.768;2022-10-01T16:19:58;20.50;99.90
16315;DHT22;8266;52.150;4.768;2022-10-01T16:22:28;20.40;99.90
16315;DHT22;8266;52.150;4.768;2022-10-01T16:24:57;20.30;99.90
16315;DHT22;8266;52.150;4.768;2022-10-01T16:27:27;20.20;99.90
16315;DHT22;8266;52.150;4.768;2022-10-01T16:29:58;20.20;99.90
16315;DHT22;8266;52.150;4.768;2022-10-01T16:32:28;20.10;99.90
16315;DHT22;8266;52.150;4.768;2022-10-01T16:35:17;20.10;99.90
16315;DHT22;8266;52.150;4.768;2022-10-01T16:37:45;20.10;99.90
16315;DHT22;8266;52.150;4.768;2022-10-01T16:40:14;20.10;99.90
16315;DHT22;8266;52.150;4.768;2022-10-01T16:42:41;20.00;99.90